メインページ
METAR-TAF:

METAR-TAF

空港 :

シカゴ, イリノイ州, アメリカ合衆国

シカゴ・オヘア国際空港

緯度: 41-58-47N, 経度: 087-54-16W, 海抜: 203m

現時点の気象観測

当レポートは49分前の18:51(UTC)に作成
北/北東の風 10kt
気温 6°C
湿度 93%
気圧 1016 hPa
視程: 8.0km
高度300ftの曇り

METAR: KORD 251851Z 03010KT 5SM BR OVC003 06/05 A3001 RMK AO2 SLP165 T00610050

時間: 14:40 (19:40 UTC)

予報

当レポートは1時間19分前の18:21(UTC)に作成
予報は25日の 18時(UTC)から 26日の 24時(UTC)まで有効
北東の風 13kt
視程: 9.7km
高度400ftの曇り
靄, 近辺でにわか雨
25日の 19時(UTC)から 25日の 22時(UTC)まで一時的に
視程: 6.4km
弱いにわか雨, 靄
25日の 2200時(UTC)から
東/北東の風 11kt
視程: 6.4km
高度800ftの曇り
弱いにわか雨, 靄
26日の 0300時(UTC)から
の風 9kt
視程: 3.2km
高度500ftの曇り
小雨, 霧雨, 靄
26日の 1500時(UTC)から
南/南東の風 9kt
視程: 4.8km
高度800ftの曇り
小雨, 霧雨, 靄
26日の 1800時(UTC)から
の風 11kt
視程: 8.0km
高度1500ftの曇り
靄, 近辺でにわか雨

TAF: KORD 251821Z 2518/2624 04013KT 6SM BR VCSH OVC004 TEMPO 2519/2522 4SM -SHRA BR FM252200 07011KT 4SM -SHRA BR OVC008 FM260300 09009KT 2SM -RADZ BR OVC005 FM261500 16009KT 3SM -RADZ BR OVC008 FM261800 19011KT 5SM BR VCSH OVC015

4,000以上の空港の気象観測と天気予報(METAR報とTAF報)

利用可能な観測所は地図上に黄色い丸と赤い丸で示す。

丸の上にカーソルを重ねると観測所名を参照できる。

次にクリックすると気象観測と天気予報を参照できる。

マップの切り替え:黒色「×」印の緑ボタンをクリックして拡大、「-」印の緑ボタンをクリックして縮小、緑色の三角印をクリックして隣りの地図に切り替え


METAR-TAF: